Startpagina
METAR-TAF:

METAR-TAF

Vliegvelden :

Saint-Yan, Frankrijk

breedte: 46-24-45N, lengte: 004-00-48E, hoogte: 244 m

Actueel weer

Dit bericht is 34 minuten geleden gemaakt, om 12:30 UTC
Wind 6 kt uit het noordoosten, variërend tussen het noorden en het oosten
Temperatuur 24°C
Vochtigheid 25%
Druk 1022 hPa
Zicht 10 km of meer
geen wolken onder 1500 m en geen cumulonimbus

METAR: LFLN 101230Z AUTO 05006KT 360V090 CAVOK 24/03 Q1022

Tijdstip: 15:04 (13:04 UTC)


TAF: ontbreekt

Waarnemingen en weersverwachtingen van meer dan 4000 vliegvelden (METAR en TAF).

De beschikbare stations zijn de gele en rode punten op de kaart.

Ga met uw muis naar het station om de naam te zien.

Klik dan om waarnemingen en weersverwachtingen te zien.

kaart wijzigen: klik op de groene knoppen met een zwart kruis om in te zoomen, op de groene knop met een streepje om uit te zoomen of op de groene pijlen voor aangrenzende kaarten.


METAR-TAF: